Time,TemperatureF,DewpointF,PressureIn,WindDirection,WindDirectionDegrees,WindSpeedMPH,WindSpeedGustMPH,Humidity,HourlyPrecipIn,Conditions,Clouds,dailyrainin,SoftwareType,DateUTC
2013-06-17 00:00:00,76.0,74.8,29.87,West,269,3.0,13.0,96,0.55,,,0.00,VWS V14.01,2013-06-17 06:00:00,
2013-06-17 00:01:00,76.1,74.9,29.87,North,8,5.0,6.0,96,0.11,,,0.00,VWS V14.01,2013-06-17 06:01:00,
2013-06-17 00:06:00,76.4,74.9,29.87,NNE,20,6.0,11.0,95,0.11,,,0.00,VWS V14.01,2013-06-17 06:06:00,
2013-06-17 00:11:00,76.1,74.6,29.87,NNE,13,8.0,15.0,95,0.12,,,0.01,VWS V14.01,2013-06-17 06:11:00,
2013-06-17 00:16:00,76.0,74.5,29.86,North,360,5.0,15.0,95,0.13,,,0.02,VWS V14.01,2013-06-17 06:16:00,
2013-06-17 00:21:00,76.1,74.6,29.86,North,352,2.0,15.0,95,0.13,,,0.02,VWS V14.01,2013-06-17 06:21:00,
2013-06-17 00:26:00,76.1,74.6,29.86,NE,47,4.0,15.0,95,0.14,,,0.03,VWS V14.01,2013-06-17 06:26:00,
2013-06-17 00:30:00,76.2,75.0,29.86,North,5,3.0,15.0,96,0.15,,,0.04,VWS V14.01,2013-06-17 06:30:00,
2013-06-17 00:31:00,76.2,75.0,29.86,NNW,348,6.0,10.0,96,0.06,,,0.04,VWS V14.01,2013-06-17 06:31:00,
2013-06-17 00:36:00,76.2,75.0,29.85,NW,316,6.0,10.0,96,0.07,,,0.05,VWS V14.01,2013-06-17 06:36:00,
2013-06-17 00:41:00,76.3,75.1,29.85,NE,36,0.0,10.0,96,0.07,,,0.05,VWS V14.01,2013-06-17 06:41:00,
2013-06-17 00:46:00,76.4,75.2,29.84,NE,41,5.0,10.0,96,0.08,,,0.06,VWS V14.01,2013-06-17 06:46:00,
2013-06-17 00:51:00,76.3,75.1,29.84,NNE,19,3.0,10.0,96,0.09,,,0.07,VWS V14.01,2013-06-17 06:51:00,
2013-06-17 00:56:00,76.3,75.1,29.84,NW,316,1.0,11.0,96,0.10,,,0.08,VWS V14.01,2013-06-17 06:56:00,
2013-06-17 01:00:00,76.2,75.0,29.84,NW,326,3.0,16.0,96,0.12,,,0.10,VWS V14.01,2013-06-17 07:00:00,
2013-06-17 01:01:00,76.2,75.0,29.84,West,264,2.0,4.0,96,0.10,,,0.10,VWS V14.01,2013-06-17 07:01:00,
2013-06-17 01:06:00,76.2,75.0,29.84,NE,47,8.0,14.0,96,0.14,,,0.14,VWS V14.01,2013-06-17 07:06:00,
2013-06-17 01:11:00,76.0,74.5,29.83,North,11,2.0,18.0,95,0.18,,,0.18,VWS V14.01,2013-06-17 07:11:00,
2013-06-17 01:16:00,75.9,74.7,29.83,NNE,23,10.0,18.0,96,0.24,,,0.24,VWS V14.01,2013-06-17 07:16:00,
2013-06-17 01:21:00,75.9,74.7,29.83,NNE,13,9.0,18.0,96,0.32,,,0.32,VWS V14.01,2013-06-17 07:21:00,
2013-06-17 01:26:00,76.1,74.9,29.83,NE,49,4.0,18.0,96,0.40,,,0.40,VWS V14.01,2013-06-17 07:26:00,
2013-06-17 01:30:00,75.7,74.2,29.83,NE,37,8.0,20.0,95,0.42,,,0.42,VWS V14.01,2013-06-17 07:30:00,
2013-06-17 01:31:00,75.6,74.1,29.83,ENE,59,6.0,13.0,95,0.38,,,0.42,VWS V14.01,2013-06-17 07:31:00,
2013-06-17 01:35:00,74.9,73.4,29.82,NW,326,2.0,13.0,95,0.40,,,0.44,VWS V14.01,2013-06-17 07:35:00,
2013-06-17 01:40:00,74.7,73.5,29.82,NE,54,8.0,13.0,96,0.41,,,0.45,VWS V14.01,2013-06-17 07:40:00,
2013-06-17 01:45:00,74.8,73.6,29.82,NNE,13,8.0,13.0,96,0.43,,,0.47,VWS V14.01,2013-06-17 07:45:00,
2013-06-17 01:50:00,75.0,73.8,29.81,NE,37,3.0,13.0,96,0.45,,,0.49,VWS V14.01,2013-06-17 07:50:00,
2013-06-17 01:55:00,75.3,74.1,29.81,NW,311,1.0,13.0,96,0.47,,,0.51,VWS V14.01,2013-06-17 07:55:00,
2013-06-17 02:00:00,75.5,74.3,29.81,NE,41,5.0,6.0,96,0.42,,,0.52,VWS V14.01,2013-06-17 08:00:00,
2013-06-17 02:05:00,75.7,74.5,29.81,NNE,25,1.0,9.0,96,0.44,,,0.54,VWS V14.01,2013-06-17 08:05:00,
2013-06-17 02:10:00,75.7,74.5,29.81,ENE,70,2.0,15.0,96,0.45,,,0.55,VWS V14.01,2013-06-17 08:10:00,
2013-06-17 02:15:00,75.4,74.2,29.80,North,8,3.0,15.0,96,0.47,,,0.57,VWS V14.01,2013-06-17 08:15:00,
2013-06-17 02:20:00,75.4,74.2,29.80,NNW,343,3.0,15.0,96,0.48,,,0.58,VWS V14.01,2013-06-17 08:20:00,
2013-06-17 02:25:00,75.5,74.3,29.80,North,8,7.0,15.0,96,0.49,,,0.59,VWS V14.01,2013-06-17 08:25:00,
2013-06-17 02:30:00,75.8,74.9,29.79,NE,54,5.0,5.0,97,0.19,,,0.61,VWS V14.01,2013-06-17 08:30:00,
2013-06-17 02:35:00,76.3,75.4,29.79,NNE,32,4.0,11.0,97,0.20,,,0.62,VWS V14.01,2013-06-17 08:35:00,
2013-06-17 02:40:00,76.6,75.7,29.79,NE,42,8.0,13.0,97,0.21,,,0.63,VWS V14.01,2013-06-17 08:40:00,
2013-06-17 02:45:00,76.8,75.9,29.78,East,90,4.0,17.0,97,0.22,,,0.64,VWS V14.01,2013-06-17 08:45:00,
2013-06-17 02:50:00,76.9,75.7,29.78,NE,42,6.0,19.0,96,0.23,,,0.65,VWS V14.01,2013-06-17 08:50:00,
2013-06-17 02:55:00,77.0,75.8,29.78,North,3,11.0,19.0,96,0.24,,,0.66,VWS V14.01,2013-06-17 08:55:00,
2013-06-17 03:00:00,77.1,75.9,29.78,ENE,59,3.0,7.0,96,0.14,,,0.66,VWS V14.01,2013-06-17 09:00:00,
2013-06-17 03:05:00,77.3,76.1,29.78,NE,49,6.0,18.0,96,0.15,,,0.67,VWS V14.01,2013-06-17 09:05:00,
2013-06-17 03:10:00,77.4,76.2,29.78,NE,41,13.0,18.0,96,0.16,,,0.68,VWS V14.01,2013-06-17 09:10:00,
2013-06-17 03:15:00,77.3,76.1,29.77,NE,41,5.0,18.0,96,0.16,,,0.68,VWS V14.01,2013-06-17 09:15:00,
2013-06-17 03:20:00,77.4,76.2,29.77,NNE,15,16.0,18.0,96,0.17,,,0.69,VWS V14.01,2013-06-17 09:20:00,
2013-06-17 03:25:00,77.5,76.3,29.77,NE,46,17.0,23.0,96,0.18,,,0.70,VWS V14.01,2013-06-17 09:25:00,
2013-06-17 03:30:00,77.6,76.4,29.77,North,11,6.0,7.0,96,0.09,,,0.70,VWS V14.01,2013-06-17 09:30:00,
2013-06-17 03:35:00,77.7,76.5,29.77,SE,146,6.0,13.0,96,0.10,,,0.71,VWS V14.01,2013-06-17 09:35:00,
2013-06-17 03:40:00,77.7,76.5,29.77,NE,49,15.0,15.0,96,0.10,,,0.71,VWS V14.01,2013-06-17 09:40:00,
2013-06-17 03:45:00,77.8,76.6,29.77,NE,34,4.0,20.0,96,0.11,,,0.72,VWS V14.01,2013-06-17 09:45:00,
2013-06-17 03:50:00,77.8,76.6,29.77,NE,37,10.0,20.0,96,0.11,,,0.72,VWS V14.01,2013-06-17 09:50:00,
2013-06-17 03:55:00,78.0,76.8,29.76,ENE,63,8.0,20.0,96,0.11,,,0.72,VWS V14.01,2013-06-17 09:55:00,
2013-06-17 04:00:00,78.0,76.8,29.77,NE,54,4.0,10.0,96,0.07,,,0.73,VWS V14.01,2013-06-17 10:00:00,
2013-06-17 04:05:00,78.0,76.8,29.76,NE,39,7.0,15.0,96,0.07,,,0.73,VWS V14.01,2013-06-17 10:05:00,
2013-06-17 04:10:00,77.9,76.7,29.76,NE,41,12.0,20.0,96,0.07,,,0.73,VWS V14.01,2013-06-17 10:10:00,
2013-06-17 04:15:00,77.7,76.5,29.76,ENE,64,5.0,20.0,96,0.07,,,0.73,VWS V14.01,2013-06-17 10:15:00,
2013-06-17 04:20:00,77.6,76.4,29.75,NNE,13,14.0,20.0,96,0.07,,,0.73,VWS V14.01,2013-06-17 10:20:00,
2013-06-17 04:25:00,77.7,76.5,29.75,NNE,15,5.0,20.0,96,0.07,,,0.73,VWS V14.01,2013-06-17 10:25:00,
2013-06-17 04:30:00,77.7,76.5,29.75,NE,46,4.0,9.0,96,0.03,,,0.73,VWS V14.01,2013-06-17 10:30:00,
2013-06-17 04:35:00,77.8,76.6,29.75,NNE,26,8.0,13.0,96,0.03,,,0.73,VWS V14.01,2013-06-17 10:35:00,
2013-06-17 04:40:00,77.9,76.7,29.75,ENE,63,6.0,16.0,96,0.05,,,0.75,VWS V14.01,2013-06-17 10:40:00,
2013-06-17 04:45:00,77.9,76.7,29.76,ENE,70,12.0,23.0,96,0.20,,,0.90,VWS V14.01,2013-06-17 10:45:00,
2013-06-17 04:53:00,76.3,74.4,29.76,ENE,77,13.0,26.0,94,0.25,,,0.95,VWS V14.01,2013-06-17 10:53:00,
2013-06-17 04:58:00,75.9,74.1,29.76,NE,56,16.0,26.0,94,0.26,,,0.96,VWS V14.01,2013-06-17 10:58:00,
2013-06-17 05:00:00,75.9,74.1,29.76,ENE,63,8.0,26.0,94,0.26,,,0.96,VWS V14.01,2013-06-17 11:00:00,
2013-06-17 05:03:00,75.9,74.1,29.76,NNE,25,10.0,16.0,94,0.23,,,0.96,VWS V14.01,2013-06-17 11:03:00,
2013-06-17 05:08:00,76.5,75.0,29.76,NE,47,8.0,18.0,95,0.23,,,0.96,VWS V14.01,2013-06-17 11:08:00,
2013-06-17 05:13:00,77.0,75.1,29.76,ENE,74,24.0,24.0,94,0.23,,,0.96,VWS V14.01,2013-06-17 11:13:00,
2013-06-17 05:30:00,78.3,75.1,29.77,ENE,58,9.0,28.0,90,0.23,,,0.96,VWS V14.01,2013-06-17 11:30:00,
2013-06-17 06:00:00,79.7,75.2,29.79,ENE,68,16.0,30.0,86,0.23,,,0.96,VWS V14.01,2013-06-17 12:00:00,
2013-06-17 06:30:00,79.9,76.4,29.81,East,90,16.0,25.0,89,0.00,,,0.96,VWS V14.01,2013-06-17 12:30:00,
2013-06-17 07:00:00,79.7,76.5,29.82,ESE,112,14.0,24.0,90,0.00,,,0.96,VWS V14.01,2013-06-17 13:00:00,
2013-06-17 07:30:00,77.9,76.0,29.84,ESE,112,12.0,26.0,94,0.19,,,1.15,VWS V14.01,2013-06-17 13:30:00,
2013-06-17 08:00:00,79.3,76.4,29.84,SE,135,8.0,14.0,91,0.33,,,1.29,VWS V14.01,2013-06-17 14:00:00,
2013-06-17 08:30:00,80.7,76.5,29.84,ESE,112,8.0,16.0,87,0.33,,,1.29,VWS V14.01,2013-06-17 14:30:00,
2013-06-17 09:00:00,81.4,77.5,29.84,ESE,112,6.0,13.0,88,0.14,,,1.29,VWS V14.01,2013-06-17 15:00:00,
2013-06-17 09:30:00,82.8,78.2,29.84,ENE,68,9.0,20.0,86,0.00,,,1.29,VWS V14.01,2013-06-17 15:30:00,
2013-06-17 10:00:00,82.7,78.1,29.84,ENE,68,14.0,24.0,86,0.00,,,1.29,VWS V14.01,2013-06-17 16:00:00,
2013-06-17 10:30:00,83.5,78.5,29.84,ENE,68,12.0,23.0,85,0.00,,,1.29,VWS V14.01,2013-06-17 16:30:00,
2013-06-17 11:00:00,84.1,78.8,29.84,ENE,68,11.0,20.0,84,0.00,,,1.29,VWS V14.01,2013-06-17 17:00:00,
2013-06-17 11:30:00,84.2,78.8,29.83,ENE,68,11.0,20.0,84,0.00,,,1.29,VWS V14.01,2013-06-17 17:30:00,
2013-06-17 12:00:00,84.6,78.9,29.83,ENE,68,11.0,22.0,83,0.00,,,1.29,VWS V14.01,2013-06-17 18:00:00,
2013-06-17 12:30:00,84.5,79.1,29.82,ENE,68,12.0,22.0,84,0.00,,,1.29,VWS V14.01,2013-06-17 18:30:00,
2013-06-17 13:02:00,82.6,78.7,29.81,NE,44,11.0,16.0,88,0.00,,,1.29,VWS V14.01,2013-06-17 19:02:00,
2013-06-17 13:07:00,82.7,78.8,29.81,East,93,10.0,21.0,88,0.00,,,1.29,VWS V14.01,2013-06-17 19:07:00,
2013-06-17 13:12:00,82.7,78.8,29.82,NE,56,12.0,21.0,88,0.00,,,1.29,VWS V14.01,2013-06-17 19:12:00,
2013-06-17 13:17:00,82.8,78.5,29.82,ENE,58,10.0,21.0,87,0.00,,,1.29,VWS V14.01,2013-06-17 19:17:00,
2013-06-17 13:22:00,82.8,78.5,29.83,NE,56,8.0,21.0,87,0.00,,,1.29,VWS V14.01,2013-06-17 19:22:00,
2013-06-17 13:27:00,83.0,78.7,29.83,ENE,66,7.0,21.0,87,0.00,,,1.29,VWS V14.01,2013-06-17 19:27:00,
2013-06-17 13:32:00,83.0,78.7,29.83,NE,52,10.0,14.0,87,0.00,,,1.29,VWS V14.01,2013-06-17 19:32:00,
2013-06-17 13:37:00,82.9,78.3,29.83,ENE,63,5.0,15.0,86,0.00,,,1.29,VWS V14.01,2013-06-17 19:37:00,
2013-06-17 13:42:00,82.9,78.6,29.83,ENE,68,7.0,15.0,87,0.00,,,1.29,VWS V14.01,2013-06-17 19:42:00,
2013-06-17 13:47:00,82.8,78.5,29.83,ENE,77,6.0,15.0,87,0.04,,,1.33,VWS V14.01,2013-06-17 19:47:00,
2013-06-17 13:52:00,82.3,78.1,29.83,East,94,2.0,15.0,87,0.11,,,1.40,VWS V14.01,2013-06-17 19:52:00,
2013-06-17 13:57:00,82.3,78.4,29.83,ENE,77,3.0,15.0,88,0.11,,,1.40,VWS V14.01,2013-06-17 19:57:00,
2013-06-17 14:02:00,82.1,78.5,29.83,NNE,30,2.0,10.0,89,0.17,,,1.46,VWS V14.01,2013-06-17 20:02:00,
2013-06-17 14:07:00,81.4,78.2,29.82,ENE,72,6.0,10.0,90,0.20,,,1.49,VWS V14.01,2013-06-17 20:07:00,
2013-06-17 14:12:00,81.0,77.5,29.82,ENE,72,13.0,14.0,89,0.20,,,1.49,VWS V14.01,2013-06-17 20:12:00,
2013-06-17 14:17:00,80.6,76.4,29.83,ESE,107,12.0,24.0,87,0.21,,,1.50,VWS V14.01,2013-06-17 20:17:00,
2013-06-17 14:22:00,79.2,76.0,29.82,NE,39,9.0,24.0,90,0.23,,,1.52,VWS V14.01,2013-06-17 20:22:00,
2013-06-17 14:27:00,79.0,76.5,29.83,ENE,67,9.0,24.0,92,0.24,,,1.53,VWS V14.01,2013-06-17 20:27:00,
2013-06-17 14:32:00,79.1,76.6,29.83,ENE,69,9.0,13.0,92,0.24,,,1.53,VWS V14.01,2013-06-17 20:32:00,
2013-06-17 14:37:00,79.2,76.7,29.82,ENE,75,7.0,15.0,92,0.24,,,1.53,VWS V14.01,2013-06-17 20:37:00,
2013-06-17 14:42:00,79.3,76.8,29.83,East,84,8.0,15.0,92,0.25,,,1.54,VWS V14.01,2013-06-17 20:42:00,
2013-06-17 14:47:00,79.6,77.1,29.82,ENE,63,6.0,15.0,92,0.27,,,1.56,VWS V14.01,2013-06-17 20:47:00,
2013-06-17 14:52:00,79.8,77.3,29.82,East,82,6.0,15.0,92,0.27,,,1.56,VWS V14.01,2013-06-17 20:52:00,
2013-06-17 14:57:00,80.0,77.1,29.82,NE,50,9.0,17.0,91,0.28,,,1.57,VWS V14.01,2013-06-17 20:57:00,
2013-06-17 15:02:00,80.2,77.3,29.82,ENE,58,13.0,14.0,91,0.15,,,1.57,VWS V14.01,2013-06-17 21:02:00,
2013-06-17 15:07:00,79.9,77.0,29.82,ENE,66,12.0,18.0,91,0.15,,,1.57,VWS V14.01,2013-06-17 21:07:00,
2013-06-17 15:12:00,79.5,76.3,29.82,ENE,72,8.0,18.0,90,0.15,,,1.57,VWS V14.01,2013-06-17 21:12:00,
2013-06-17 15:17:00,79.4,76.6,29.82,ENE,70,4.0,18.0,91,0.15,,,1.57,VWS V14.01,2013-06-17 21:17:00,
2013-06-17 15:22:00,79.4,76.6,29.81,NE,46,7.0,18.0,91,0.15,,,1.57,VWS V14.01,2013-06-17 21:22:00,
2013-06-17 15:27:00,79.3,76.8,29.81,ENE,70,8.0,18.0,92,0.15,,,1.57,VWS V14.01,2013-06-17 21:27:00,
2013-06-17 15:32:00,79.3,76.8,29.81,SE,135,10.0,18.0,92,0.05,,,1.58,VWS V14.01,2013-06-17 21:32:00,
2013-06-17 15:37:00,79.4,76.6,29.82,ENE,77,16.0,21.0,91,0.05,,,1.58,VWS V14.01,2013-06-17 21:37:00,
2013-06-17 15:42:00,78.9,76.7,29.82,ENE,77,5.0,21.0,93,0.12,,,1.65,VWS V14.01,2013-06-17 21:42:00,
2013-06-17 15:47:00,78.9,77.0,29.82,East,82,5.0,21.0,94,0.19,,,1.72,VWS V14.01,2013-06-17 21:47:00,
2013-06-17 15:52:00,79.0,77.1,29.81,NE,42,7.0,21.0,94,0.24,,,1.77,VWS V14.01,2013-06-17 21:52:00,
2013-06-17 15:57:00,79.0,77.1,29.82,ENE,61,7.0,21.0,94,0.24,,,1.77,VWS V14.01,2013-06-17 21:57:00,
2013-06-17 16:02:00,79.0,76.8,29.81,ENE,67,10.0,18.0,93,0.20,,,1.77,VWS V14.01,2013-06-17 22:02:00,
2013-06-17 16:07:00,79.2,76.7,29.81,ENE,67,12.0,18.0,92,0.20,,,1.77,VWS V14.01,2013-06-17 22:07:00,
2013-06-17 16:12:00,79.0,76.8,29.82,ENE,63,14.0,25.0,93,0.21,,,1.78,VWS V14.01,2013-06-17 22:12:00,
2013-06-17 16:17:00,78.8,76.6,29.82,East,89,21.0,25.0,93,0.21,,,1.78,VWS V14.01,2013-06-17 22:17:00,
2013-06-17 16:22:00,78.3,76.1,29.82,East,82,14.0,27.0,93,0.21,,,1.78,VWS V14.01,2013-06-17 22:22:00,
2013-06-17 16:27:00,78.1,76.2,29.82,ENE,60,19.0,27.0,94,0.21,,,1.78,VWS V14.01,2013-06-17 22:27:00,
2013-06-17 16:32:00,77.5,75.0,29.83,ENE,58,14.0,29.0,92,0.30,,,1.89,VWS V14.01,2013-06-17 22:32:00,
2013-06-17 16:37:00,76.4,74.6,29.82,NE,56,8.0,29.0,94,0.38,,,1.96,VWS V14.01,2013-06-17 22:37:00,
2013-06-17 16:42:00,76.6,75.4,29.82,ENE,77,10.0,29.0,96,0.42,,,2.00,VWS V14.01,2013-06-17 22:42:00,
2013-06-17 16:47:00,77.0,75.8,29.82,East,84,7.0,29.0,96,0.43,,,2.01,VWS V14.01,2013-06-17 22:47:00,
2013-06-17 16:52:00,77.2,76.0,29.81,ESE,107,7.0,29.0,96,0.43,,,2.01,VWS V14.01,2013-06-17 22:52:00,
2013-06-17 16:57:00,77.0,75.5,29.81,ENE,67,9.0,29.0,95,0.43,,,2.01,VWS V14.01,2013-06-17 22:57:00,
2013-06-17 17:02:00,77.1,75.9,29.82,ENE,73,14.0,22.0,96,0.24,,,2.01,VWS V14.01,2013-06-17 23:02:00,
2013-06-17 17:07:00,76.9,75.4,29.83,ENE,70,10.0,22.0,95,0.24,,,2.01,VWS V14.01,2013-06-17 23:07:00,
2013-06-17 17:12:00,77.0,75.8,29.83,ENE,61,9.0,22.0,96,0.25,,,2.02,VWS V14.01,2013-06-17 23:12:00,
2013-06-17 17:17:00,77.1,75.6,29.82,NE,49,4.0,22.0,95,0.26,,,2.03,VWS V14.01,2013-06-17 23:17:00,
2013-06-17 17:22:00,77.3,76.1,29.83,NE,41,8.0,22.0,96,0.27,,,2.04,VWS V14.01,2013-06-17 23:22:00,
2013-06-17 17:27:00,77.5,76.3,29.83,East,79,9.0,22.0,96,0.28,,,2.05,VWS V14.01,2013-06-17 23:27:00,
2013-06-17 17:32:00,77.7,76.5,29.83,East,96,5.0,15.0,96,0.21,,,2.05,VWS V14.01,2013-06-17 23:32:00,
2013-06-17 17:37:00,77.7,76.2,29.84,East,89,15.0,21.0,95,0.22,,,2.06,VWS V14.01,2013-06-17 23:37:00,
2013-06-17 17:42:00,77.2,75.3,29.84,East,79,6.0,21.0,94,0.22,,,2.06,VWS V14.01,2013-06-17 23:42:00,
2013-06-17 17:47:00,77.1,75.2,29.85,East,90,12.0,21.0,94,0.22,,,2.06,VWS V14.01,2013-06-17 23:47:00,
2013-06-17 17:52:00,77.2,75.0,29.85,ESE,121,8.0,21.0,93,0.23,,,2.07,VWS V14.01,2013-06-17 23:52:00,
2013-06-17 17:57:00,76.8,74.9,29.85,East,79,11.0,22.0,94,0.24,,,2.08,VWS V14.01,2013-06-17 23:57:00,
2013-06-17 18:02:00,76.6,74.8,29.84,ENE,60,9.0,14.0,94,0.09,,,2.10,VWS V14.01,2013-06-18 00:02:00,
2013-06-17 18:07:00,76.4,74.9,29.84,ENE,77,4.0,14.0,95,0.14,,,2.15,VWS V14.01,2013-06-18 00:07:00,
2013-06-17 18:12:00,76.6,75.4,29.85,NE,49,10.0,15.0,96,0.15,,,2.16,VWS V14.01,2013-06-18 00:12:00,
2013-06-17 18:17:00,76.8,75.6,29.84,NNE,15,7.0,15.0,96,0.15,,,2.16,VWS V14.01,2013-06-18 00:17:00,
2013-06-17 18:22:00,77.0,75.8,29.84,ENE,62,5.0,17.0,96,0.16,,,2.17,VWS V14.01,2013-06-18 00:22:00,
2013-06-17 18:27:00,77.2,76.0,29.85,North,360,9.0,17.0,96,0.16,,,2.17,VWS V14.01,2013-06-18 00:27:00,
2013-06-17 18:32:00,77.6,76.4,29.85,ENE,58,7.0,13.0,96,0.13,,,2.18,VWS V14.01,2013-06-18 00:32:00,
2013-06-17 18:37:00,77.9,76.7,29.85,ENE,77,10.0,13.0,96,0.13,,,2.18,VWS V14.01,2013-06-18 00:37:00,
2013-06-17 18:42:00,77.8,76.6,29.86,East,101,8.0,13.0,96,0.13,,,2.18,VWS V14.01,2013-06-18 00:42:00,
2013-06-17 18:47:00,78.1,76.9,29.86,ESE,113,9.0,13.0,96,0.13,,,2.18,VWS V14.01,2013-06-18 00:47:00,
2013-06-17 18:52:00,78.0,76.5,29.86,East,82,8.0,13.0,95,0.14,,,2.19,VWS V14.01,2013-06-18 00:52:00,
2013-06-17 18:57:00,78.1,76.9,29.86,East,94,5.0,13.0,96,0.15,,,2.20,VWS V14.01,2013-06-18 00:57:00,
2013-06-17 19:02:00,78.0,76.8,29.86,East,81,3.0,7.0,96,0.11,,,2.20,VWS V14.01,2013-06-18 01:02:00,
2013-06-17 19:07:00,78.0,76.8,29.86,East,86,2.0,7.0,96,0.12,,,2.21,VWS V14.01,2013-06-18 01:07:00,
2013-06-17 19:12:00,78.0,76.8,29.86,ESE,109,2.0,7.0,96,0.12,,,2.21,VWS V14.01,2013-06-18 01:12:00,
2013-06-17 19:17:00,78.0,76.8,29.86,East,85,0.0,7.0,96,0.13,,,2.22,VWS V14.01,2013-06-18 01:17:00,
2013-06-17 19:22:00,77.9,76.7,29.85,East,85,0.0,7.0,96,0.13,,,2.22,VWS V14.01,2013-06-18 01:22:00,
2013-06-17 19:27:00,77.8,76.6,29.86,East,79,0.0,7.0,96,0.13,,,2.22,VWS V14.01,2013-06-18 01:27:00,
2013-06-17 19:32:00,77.7,76.5,29.85,NE,56,2.0,2.0,96,0.05,,,2.23,VWS V14.01,2013-06-18 01:32:00,
2013-06-17 19:37:00,77.8,76.6,29.86,ENE,63,4.0,5.0,96,0.05,,,2.23,VWS V14.01,2013-06-18 01:37:00,
2013-06-17 19:42:00,78.1,77.2,29.86,NE,53,2.0,7.0,97,0.05,,,2.23,VWS V14.01,2013-06-18 01:42:00,
2013-06-17 19:47:00,78.2,77.0,29.86,East,93,0.0,7.0,96,0.05,,,2.23,VWS V14.01,2013-06-18 01:47:00,
2013-06-17 19:52:00,78.1,76.9,29.86,East,101,0.0,7.0,96,0.05,,,2.23,VWS V14.01,2013-06-18 01:52:00,
2013-06-17 19:57:00,78.3,77.1,29.86,ESE,113,5.0,7.0,96,0.05,,,2.23,VWS V14.01,2013-06-18 01:57:00,
2013-06-17 20:02:00,78.6,77.4,29.86,SE,129,6.0,8.0,96,0.03,,,2.23,VWS V14.01,2013-06-18 02:02:00,
2013-06-17 20:07:00,78.6,77.4,29.86,ESE,121,3.0,8.0,96,0.03,,,2.23,VWS V14.01,2013-06-18 02:07:00,
2013-06-17 20:12:00,78.6,77.4,29.86,SE,134,3.0,8.0,96,0.04,,,2.24,VWS V14.01,2013-06-18 02:12:00,
2013-06-17 20:17:00,78.6,77.4,29.86,SE,141,2.0,8.0,96,0.04,,,2.24,VWS V14.01,2013-06-18 02:17:00,
2013-06-17 20:22:00,78.6,77.4,29.86,SE,139,3.0,8.0,96,0.04,,,2.24,VWS V14.01,2013-06-18 02:22:00,
2013-06-17 20:27:00,78.4,76.8,29.86,SSE,153,5.0,8.0,95,0.04,,,2.24,VWS V14.01,2013-06-18 02:27:00,
2013-06-17 20:32:00,78.5,77.3,29.86,South,177,5.0,8.0,96,0.02,,,2.24,VWS V14.01,2013-06-18 02:32:00,
2013-06-17 20:37:00,78.6,77.4,29.86,SE,128,5.0,8.0,96,0.02,,,2.24,VWS V14.01,2013-06-18 02:37:00,
2013-06-17 20:42:00,78.7,77.2,29.86,South,169,5.0,9.0,95,0.02,,,2.24,VWS V14.01,2013-06-18 02:42:00,
2013-06-17 20:47:00,78.7,77.2,29.86,South,173,5.0,9.0,95,0.02,,,2.24,VWS V14.01,2013-06-18 02:47:00,
2013-06-17 20:52:00,78.8,77.2,29.86,SW,222,5.0,9.0,95,0.02,,,2.24,VWS V14.01,2013-06-18 02:52:00,
2013-06-17 20:57:00,78.8,77.2,29.87,SE,131,4.0,9.0,95,0.02,,,2.24,VWS V14.01,2013-06-18 02:57:00,
2013-06-17 21:02:00,79.0,77.1,29.87,SSW,203,4.0,6.0,94,0.01,,,2.24,VWS V14.01,2013-06-18 03:02:00,
2013-06-17 21:07:00,79.1,77.6,29.87,SE,127,6.0,7.0,95,0.01,,,2.24,VWS V14.01,2013-06-18 03:07:00,
2013-06-17 21:12:00,79.3,77.4,29.87,SSE,160,2.0,7.0,94,0.01,,,2.24,VWS V14.01,2013-06-18 03:12:00,
2013-06-17 21:17:00,79.4,77.5,29.87,SE,141,3.0,7.0,94,0.01,,,2.24,VWS V14.01,2013-06-18 03:17:00,
2013-06-17 21:22:00,79.5,77.6,29.88,ESE,108,4.0,7.0,94,0.01,,,2.24,VWS V14.01,2013-06-18 03:22:00,
2013-06-17 21:27:00,79.6,77.7,29.88,SSE,153,2.0,7.0,94,0.01,,,2.24,VWS V14.01,2013-06-18 03:27:00,
2013-06-17 21:32:00,79.5,77.6,29.88,SE,141,1.0,4.0,94,0.00,,,2.24,VWS V14.01,2013-06-18 03:32:00,
2013-06-17 21:37:00,79.6,77.4,29.87,SE,139,0.0,4.0,93,0.00,,,2.24,VWS V14.01,2013-06-18 03:37:00,
2013-06-17 21:42:00,79.7,77.5,29.87,SSE,162,4.0,6.0,93,0.00,,,2.24,VWS V14.01,2013-06-18 03:42:00,
2013-06-17 21:47:00,79.6,77.4,29.87,SSW,194,6.0,6.0,93,0.00,,,2.24,VWS V14.01,2013-06-18 03:47:00,
2013-06-17 21:52:00,79.5,77.3,29.88,SSW,197,4.0,6.0,93,0.00,,,2.24,VWS V14.01,2013-06-18 03:52:00,
2013-06-17 21:57:00,79.5,77.0,29.88,South,190,4.0,6.0,92,0.00,,,2.24,VWS V14.01,2013-06-18 03:57:00,
2013-06-17 22:01:00,79.4,76.9,29.88,SE,145,2.0,3.0,92,0.00,,,2.24,VWS V14.01,2013-06-18 04:01:00,
2013-06-17 22:06:00,79.4,76.9,29.88,SSE,155,0.0,3.0,92,0.00,,,2.24,VWS V14.01,2013-06-18 04:06:00,
2013-06-17 22:11:00,79.4,76.9,29.88,South,191,1.0,4.0,92,0.00,,,2.24,VWS V14.01,2013-06-18 04:11:00,
2013-06-17 22:16:00,79.4,76.9,29.89,South,180,3.0,5.0,92,0.00,,,2.24,VWS V14.01,2013-06-18 04:16:00,
2013-06-17 22:21:00,79.5,77.0,29.88,South,176,3.0,5.0,92,0.00,,,2.24,VWS V14.01,2013-06-18 04:21:00,
2013-06-17 22:26:00,79.4,76.9,29.88,SSE,155,3.0,5.0,92,0.00,,,2.24,VWS V14.01,2013-06-18 04:26:00,
2013-06-17 22:31:00,79.3,76.8,29.88,SSW,193,6.0,7.0,92,0.00,,,2.24,VWS V14.01,2013-06-18 04:31:00,
2013-06-17 22:36:00,79.4,76.9,29.88,SSE,160,6.0,7.0,92,0.00,,,2.24,VWS V14.01,2013-06-18 04:36:00,
2013-06-17 22:41:00,79.4,76.9,29.88,East,86,2.0,7.0,92,0.00,,,2.24,VWS V14.01,2013-06-18 04:41:00,
2013-06-17 22:46:00,79.5,77.0,29.87,SSE,155,1.0,7.0,92,0.00,,,2.24,VWS V14.01,2013-06-18 04:46:00,
2013-06-17 22:51:00,79.4,76.9,29.88,SE,124,3.0,7.0,92,0.00,,,2.24,VWS V14.01,2013-06-18 04:51:00,
2013-06-17 22:56:00,79.4,76.9,29.87,South,191,3.0,7.0,92,0.00,,,2.24,VWS V14.01,2013-06-18 04:56:00,
2013-06-17 23:01:00,79.4,76.9,29.87,SSE,155,1.0,2.0,92,0.00,,,2.24,VWS V14.01,2013-06-18 05:01:00,
2013-06-17 23:06:00,79.5,77.0,29.87,SSE,160,2.0,3.0,92,0.00,,,2.24,VWS V14.01,2013-06-18 05:06:00,
2013-06-17 23:11:00,79.6,77.1,29.87,SE,132,2.0,3.0,92,0.00,,,2.24,VWS V14.01,2013-06-18 05:11:00,
2013-06-17 23:16:00,79.5,77.0,29.87,SSE,152,2.0,4.0,92,0.00,,,2.24,VWS V14.01,2013-06-18 05:16:00,
2013-06-17 23:21:00,79.7,77.2,29.87,SSE,167,2.0,4.0,92,0.00,,,2.24,VWS V14.01,2013-06-18 05:21:00,
2013-06-17 23:26:00,79.7,77.2,29.87,ESE,113,1.0,4.0,92,0.00,,,2.24,VWS V14.01,2013-06-18 05:26:00,
2013-06-17 23:31:00,79.8,77.3,29.87,South,177,4.0,5.0,92,0.00,,,2.24,VWS V14.01,2013-06-18 05:31:00,
2013-06-17 23:36:00,79.8,77.3,29.87,South,186,2.0,6.0,92,0.00,,,2.24,VWS V14.01,2013-06-18 05:36:00,
2013-06-17 23:41:00,79.8,77.3,29.87,SSE,167,2.0,6.0,92,0.00,,,2.24,VWS V14.01,2013-06-18 05:41:00,
2013-06-17 23:46:00,79.8,77.3,29.86,South,184,2.0,6.0,92,0.00,,,2.24,VWS V14.01,2013-06-18 05:46:00,
2013-06-17 23:51:00,79.8,77.3,29.86,SE,128,1.0,6.0,92,0.00,,,2.24,VWS V14.01,2013-06-18 05:51:00,
2013-06-17 23:56:00,79.9,77.4,29.86,SE,143,3.0,6.0,92,0.00,,,2.24,VWS V14.01,2013-06-18 05:56:00,